createdAt,value
2023-03-22T00:00:02.926Z,77.27
2023-03-22T00:01:10.294Z,77.06
2023-03-22T00:02:11.806Z,77.02
2023-03-22T00:03:13.353Z,76.96
2023-03-22T00:04:14.789Z,77.37
2023-03-22T00:05:16.355Z,77.20
2023-03-22T00:06:18.459Z,76.72
2023-03-22T00:07:19.922Z,76.60
2023-03-22T00:08:21.372Z,77.16
2023-03-22T00:09:22.867Z,77.36
2023-03-22T00:10:26.020Z,77.08
2023-03-22T00:11:27.859Z,77.30
2023-03-22T00:12:30.632Z,76.98
2023-03-22T00:13:35.501Z,77.48
2023-03-22T00:14:37.297Z,77.27
2023-03-22T00:15:39.503Z,77.01
2023-03-22T00:16:41.553Z,77.07
2023-03-22T00:17:44.662Z,76.92
2023-03-22T00:18:46.484Z,77.18
2023-03-22T00:19:49.477Z,77.21
2023-03-22T00:20:52.067Z,76.92
2023-03-22T00:21:53.520Z,76.72
2023-03-22T00:22:55.046Z,77.08
2023-03-22T00:23:56.512Z,77.58
2023-03-22T00:24:58.568Z,77.82
2023-03-22T00:26:00.180Z,77.51
2023-03-22T00:27:01.738Z,77.47
2023-03-22T00:28:03.599Z,77.57
2023-03-22T00:29:05.647Z,77.69
2023-03-22T00:30:08.584Z,77.44
2023-03-22T00:31:10.716Z,77.13
2023-03-22T00:32:12.342Z,76.91
2023-03-22T00:33:13.820Z,77.21
2023-03-22T00:34:15.528Z,77.16
2023-03-22T00:35:17.030Z,77.31
2023-03-22T00:36:18.510Z,77.57
2023-03-22T00:37:19.981Z,77.09
2023-03-22T00:38:27.274Z,76.94
2023-03-22T00:39:34.071Z,76.98
2023-03-22T00:40:35.531Z,76.94
2023-03-22T00:41:37.066Z,77.45
2023-03-22T00:42:40.272Z,77.17
2023-03-22T00:43:48.985Z,77.10
2023-03-22T00:44:50.397Z,76.87
2023-03-22T00:45:53.174Z,76.88
2023-03-22T00:46:54.658Z,76.86
2023-03-22T00:47:56.235Z,77.43
2023-03-22T00:48:57.805Z,77.21
2023-03-22T00:49:59.536Z,77.15
2023-03-22T00:51:01.311Z,76.79
2023-03-22T00:52:03.221Z,76.78
2023-03-22T00:53:04.772Z,77.03
2023-03-22T00:54:06.570Z,77.22
2023-03-22T00:55:08.151Z,76.80
2023-03-22T00:56:10.731Z,77.03
2023-03-22T00:57:14.136Z,76.86
2023-03-22T00:58:15.790Z,76.51
2023-03-22T00:59:17.362Z,76.67
2023-03-22T01:00:18.939Z,76.48
2023-03-22T01:01:20.831Z,76.61
2023-03-22T01:02:29.823Z,76.19
2023-03-22T01:03:31.346Z,76.82
2023-03-22T01:04:35.674Z,76.65
2023-03-22T01:05:37.214Z,76.15
2023-03-22T01:06:39.011Z,77.18
2023-03-22T01:07:41.668Z,76.30
2023-03-22T01:08:43.629Z,76.20
2023-03-22T01:09:45.578Z,76.83
2023-03-22T01:10:47.024Z,76.42
2023-03-22T01:11:48.845Z,76.99
2023-03-22T01:12:51.565Z,77.27
2023-03-22T01:13:54.985Z,77.75
2023-03-22T01:14:56.685Z,77.51
2023-03-22T01:15:58.237Z,77.24
2023-03-22T01:17:00.064Z,77.14
2023-03-22T01:18:01.762Z,77.19
2023-03-22T01:19:03.616Z,77.12
2023-03-22T01:20:06.900Z,76.97
2023-03-22T01:21:08.899Z,77.01
2023-03-22T01:22:10.409Z,76.71
2023-03-22T01:23:11.893Z,76.92
2023-03-22T01:24:13.375Z,76.33
2023-03-22T01:25:14.954Z,76.80
2023-03-22T01:26:16.399Z,77.38
2023-03-22T01:27:18.007Z,77.22
2023-03-22T01:28:19.641Z,76.96
2023-03-22T01:29:21.248Z,77.13
2023-03-22T01:30:22.725Z,76.79
2023-03-22T01:31:24.217Z,77.13
2023-03-22T01:32:25.790Z,77.10
2023-03-22T01:33:27.258Z,77.28
2023-03-22T01:34:28.700Z,76.88
2023-03-22T01:35:30.834Z,76.99
2023-03-22T01:36:32.607Z,77.04
2023-03-22T01:37:34.313Z,77.51
2023-03-22T01:38:35.773Z,77.27
2023-03-22T01:39:37.234Z,77.31
2023-03-22T01:40:39.560Z,77.01
2023-03-22T01:41:41.144Z,76.86
2023-03-22T01:42:42.620Z,77.56
2023-03-22T01:43:44.087Z,77.17
2023-03-22T01:45:14.195Z,77.37
2023-03-22T01:46:15.744Z,76.88
2023-03-22T01:47:17.228Z,76.71
2023-03-22T01:48:21.993Z,76.85
2023-03-22T01:49:25.050Z,78.18
2023-03-22T01:50:27.897Z,77.78
2023-03-22T01:51:29.621Z,78.65
2023-03-22T01:52:31.414Z,78.77
2023-03-22T01:53:39.562Z,78.88
2023-03-22T01:54:45.352Z,78.70
2023-03-22T01:55:47.236Z,78.27
2023-03-22T01:56:49.337Z,78.40
2023-03-22T01:57:52.021Z,78.01
2023-03-22T01:58:55.004Z,77.67
2023-03-22T01:59:56.434Z,77.68
2023-03-22T02:00:58.802Z,78.07
2023-03-22T02:02:02.821Z,77.25
2023-03-22T02:03:06.434Z,77.43
2023-03-22T02:04:20.827Z,77.20
2023-03-22T02:05:25.707Z,77.42
2023-03-22T02:06:29.912Z,78.40
2023-03-22T02:07:31.728Z,78.08
2023-03-22T02:08:34.051Z,77.72
2023-03-22T02:09:42.414Z,77.67
2023-03-22T02:10:43.924Z,77.52
2023-03-22T02:12:06.004Z,77.62
2023-03-22T02:13:24.032Z,77.29
2023-03-22T02:14:57.480Z,77.83
2023-03-22T02:16:14.185Z,77.94
2023-03-22T02:17:28.092Z,78.17
2023-03-22T02:18:45.778Z,78.37
2023-03-22T02:20:12.288Z,77.56
2023-03-22T02:21:32.983Z,77.78
2023-03-22T02:23:06.272Z,77.88
2023-03-22T02:24:23.633Z,77.54
2023-03-22T02:26:09.815Z,77.85
2023-03-22T02:27:23.132Z,77.53
2023-03-22T02:28:33.606Z,78.07
2023-03-22T02:29:45.319Z,77.51
2023-03-22T02:31:01.931Z,77.96
2023-03-22T02:32:19.085Z,77.53
2023-03-22T02:33:50.439Z,77.48
2023-03-22T02:35:00.994Z,77.50
2023-03-22T02:36:24.228Z,77.53
2023-03-22T02:37:34.673Z,77.47
2023-03-22T02:38:53.878Z,77.62
2023-03-22T02:40:21.118Z,77.09
2023-03-22T02:41:58.869Z,77.88
2023-03-22T02:43:21.691Z,77.52
2023-03-22T02:44:29.062Z,78.12
2023-03-22T02:45:38.022Z,77.62
2023-03-22T02:46:53.223Z,78.41
2023-03-22T02:47:58.698Z,77.88
2023-03-22T02:49:18.205Z,78.00
2023-03-22T02:50:30.840Z,78.60
2023-03-22T02:51:55.777Z,78.38
2023-03-22T02:53:05.232Z,78.97
2023-03-22T02:54:18.607Z,78.41
2023-03-22T02:55:32.204Z,78.11
2023-03-22T02:56:48.230Z,78.88
2023-03-22T02:57:58.286Z,79.24
2023-03-22T02:59:04.381Z,78.30
2023-03-22T03:00:11.981Z,78.25
2023-03-22T03:01:21.448Z,78.30
2023-03-22T03:02:23.954Z,77.97
2023-03-22T03:03:29.343Z,77.93
2023-03-22T03:04:35.621Z,78.19
2023-03-22T03:05:43.830Z,77.81
2023-03-22T03:06:48.901Z,77.48
2023-03-22T03:07:57.489Z,77.49
2023-03-22T03:09:02.882Z,77.47
2023-03-22T03:10:05.226Z,78.06
2023-03-22T03:11:08.876Z,77.70
2023-03-22T03:12:24.975Z,77.93
2023-03-22T03:13:26.425Z,77.88
2023-03-22T03:14:30.867Z,77.38
2023-03-22T03:15:32.717Z,77.22
2023-03-22T03:16:35.153Z,77.28
2023-03-22T03:18:02.745Z,78.00
2023-03-22T03:19:12.184Z,77.46
2023-03-22T03:20:31.980Z,76.86
2023-03-22T03:21:42.533Z,77.05
2023-03-22T03:22:54.610Z,77.35
2023-03-22T03:24:08.132Z,77.18
2023-03-22T03:25:18.230Z,77.54
2023-03-22T03:26:34.998Z,77.36
2023-03-22T03:27:59.383Z,77.64
2023-03-22T03:29:09.731Z,77.25
2023-03-22T03:30:20.284Z,77.75
2023-03-22T03:31:34.803Z,77.23
2023-03-22T03:32:45.436Z,77.18
2023-03-22T03:34:13.381Z,76.06
2023-03-22T03:35:25.409Z,77.43
2023-03-22T03:36:28.904Z,77.83
2023-03-22T03:37:47.935Z,77.54
2023-03-22T03:38:52.477Z,77.32
2023-03-22T03:40:08.898Z,77.12
2023-03-22T03:41:16.312Z,77.38
2023-03-22T03:42:19.162Z,77.62
2023-03-22T03:43:27.933Z,77.30
2023-03-22T03:44:31.537Z,77.03
2023-03-22T03:45:36.154Z,76.41
2023-03-22T03:46:38.373Z,76.99
2023-03-22T03:47:40.984Z,77.19
2023-03-22T03:48:47.684Z,76.81
2023-03-22T03:49:50.285Z,76.78
2023-03-22T03:50:54.115Z,76.62
2023-03-22T03:51:56.659Z,76.61
2023-03-22T03:52:58.260Z,76.65
2023-03-22T03:53:59.682Z,77.11
2023-03-22T03:55:01.205Z,76.54
2023-03-22T03:56:02.746Z,76.89
2023-03-22T03:57:04.540Z,77.12
2023-03-22T03:58:06.073Z,77.39
2023-03-22T03:59:08.351Z,78.09
2023-03-22T04:00:11.199Z,77.37
2023-03-22T04:01:12.683Z,77.71
2023-03-22T04:02:14.197Z,78.24
2023-03-22T04:03:16.114Z,78.15
2023-03-22T04:04:27.278Z,77.79
2023-03-22T04:05:28.812Z,78.21
2023-03-22T04:06:30.576Z,78.25
2023-03-22T04:07:31.998Z,78.45
2023-03-22T04:08:33.442Z,78.99
2023-03-22T04:09:37.970Z,78.53
2023-03-22T04:10:40.049Z,78.02
2023-03-22T04:11:47.335Z,78.30
2023-03-22T04:12:49.594Z,78.41
2023-03-22T04:13:51.179Z,78.32
2023-03-22T04:14:59.400Z,77.86
2023-03-22T04:16:02.423Z,77.87
2023-03-22T04:17:04.163Z,77.94
2023-03-22T04:18:07.071Z,78.32
2023-03-22T04:19:08.528Z,78.11
2023-03-22T04:20:12.382Z,78.40
2023-03-22T04:21:16.506Z,79.54
2023-03-22T04:22:18.537Z,79.24
2023-03-22T04:23:22.677Z,78.56
2023-03-22T04:24:24.264Z,78.62
2023-03-22T04:25:29.970Z,77.85
2023-03-22T04:26:32.010Z,77.98
2023-03-22T04:27:33.945Z,78.09
2023-03-22T04:28:35.396Z,78.48
2023-03-22T04:29:37.283Z,78.44
2023-03-22T04:30:39.306Z,78.05
2023-03-22T04:31:41.111Z,77.79
2023-03-22T04:32:42.878Z,77.88
2023-03-22T04:33:47.301Z,77.92
2023-03-22T04:34:50.147Z,77.76
2023-03-22T04:35:56.841Z,78.30
2023-03-22T04:37:02.771Z,78.69
2023-03-22T04:38:04.234Z,78.13
2023-03-22T04:39:08.769Z,78.37
2023-03-22T04:40:16.550Z,78.59
2023-03-22T04:41:18.961Z,77.84
2023-03-22T04:42:20.836Z,78.44
2023-03-22T04:43:22.919Z,77.49
2023-03-22T04:44:24.371Z,77.47
2023-03-22T04:45:29.175Z,77.68
2023-03-22T04:46:32.389Z,77.60
2023-03-22T04:47:33.900Z,77.39
2023-03-22T04:48:42.013Z,77.16
2023-03-22T04:49:43.739Z,77.41
2023-03-22T04:50:45.653Z,77.18
2023-03-22T04:51:47.092Z,77.28
2023-03-22T04:52:49.942Z,77.31
2023-03-22T04:53:52.341Z,76.88
2023-03-22T04:54:53.823Z,77.08
2023-03-22T04:55:59.027Z,77.35
2023-03-22T04:57:01.000Z,77.40
2023-03-22T04:58:02.440Z,77.25
2023-03-22T04:59:03.872Z,77.04
2023-03-22T05:00:08.479Z,76.94
2023-03-22T05:01:12.010Z,77.00
2023-03-22T05:02:13.492Z,77.22
2023-03-22T05:03:19.130Z,77.64
2023-03-22T05:04:21.000Z,77.28
2023-03-22T05:05:22.559Z,77.25
2023-03-22T05:06:24.362Z,77.24
2023-03-22T05:07:25.798Z,77.27
2023-03-22T05:08:29.963Z,76.38
2023-03-22T05:09:31.472Z,76.94
2023-03-22T05:10:32.928Z,76.57
2023-03-22T05:11:34.588Z,76.59
2023-03-22T05:12:36.013Z,76.06
2023-03-22T05:13:37.495Z,76.17
2023-03-22T05:14:39.008Z,77.40
2023-03-22T05:15:41.824Z,77.75
2023-03-22T05:16:43.496Z,78.01
2023-03-22T05:17:44.943Z,77.54
2023-03-22T05:18:46.724Z,77.43
2023-03-22T05:19:48.277Z,77.80
2023-03-22T05:20:51.316Z,77.09
2023-03-22T05:21:58.177Z,76.54
2023-03-22T05:23:02.834Z,76.85
2023-03-22T05:24:04.576Z,77.78
2023-03-22T05:25:08.001Z,78.29
2023-03-22T05:26:10.743Z,79.71
2023-03-22T05:27:14.173Z,79.21
2023-03-22T05:28:16.338Z,79.04
2023-03-22T05:29:17.778Z,79.14
2023-03-22T05:30:19.285Z,79.89
2023-03-22T05:31:22.016Z,80.08
2023-03-22T05:32:25.643Z,79.86
2023-03-22T05:33:28.009Z,79.76
2023-03-22T05:34:35.608Z,78.74
2023-03-22T05:35:39.793Z,79.20
2023-03-22T05:36:41.282Z,78.90
2023-03-22T05:37:47.188Z,79.81
2023-03-22T05:38:49.025Z,79.33
2023-03-22T05:39:50.460Z,80.50
2023-03-22T05:40:52.570Z,81.22
2023-03-22T05:41:54.234Z,80.52
2023-03-22T05:42:55.914Z,79.99
2023-03-22T05:43:57.805Z,79.82
2023-03-22T05:44:59.244Z,79.78
2023-03-22T05:46:01.360Z,80.04
2023-03-22T05:47:02.864Z,80.05
2023-03-22T05:48:05.043Z,80.04
2023-03-22T05:49:06.496Z,80.45
2023-03-22T05:50:10.476Z,80.14
2023-03-22T05:51:17.515Z,80.37
2023-03-22T05:52:19.148Z,79.94
2023-03-22T05:53:20.710Z,79.76
2023-03-22T05:54:22.187Z,79.31
2023-03-22T05:55:23.691Z,79.67
2023-03-22T05:56:25.181Z,79.83
2023-03-22T05:57:27.253Z,79.37
2023-03-22T05:58:30.806Z,78.79
2023-03-22T05:59:32.297Z,79.09
2023-03-22T06:00:34.006Z,79.57
2023-03-22T06:01:35.525Z,80.07
2023-03-22T06:02:37.132Z,80.45
2023-03-22T06:03:39.358Z,80.76
2023-03-22T06:04:41.694Z,80.70
2023-03-22T06:05:43.202Z,80.95
2023-03-22T06:06:44.654Z,80.17
2023-03-22T06:07:46.160Z,79.60
2023-03-22T06:08:47.701Z,78.96
2023-03-22T06:09:50.319Z,79.87
2023-03-22T06:10:52.814Z,79.22
2023-03-22T06:11:54.312Z,79.52
2023-03-22T06:12:56.070Z,79.27
2023-03-22T06:13:57.555Z,79.52
2023-03-22T06:14:59.139Z,79.00
2023-03-22T06:16:02.736Z,79.04
2023-03-22T06:17:04.303Z,78.10
2023-03-22T06:18:06.207Z,77.91
2023-03-22T06:19:07.636Z,77.29
2023-03-22T06:20:11.129Z,76.55
2023-03-22T06:21:12.630Z,76.36
2023-03-22T06:22:14.109Z,75.72
2023-03-22T06:23:15.818Z,75.57
2023-03-22T06:24:17.304Z,75.10
2023-03-22T06:25:18.873Z,75.06
2023-03-22T06:26:20.423Z,74.59
2023-03-22T06:27:22.211Z,75.18
2023-03-22T06:28:23.761Z,74.88
2023-03-22T06:29:25.389Z,74.27
2023-03-22T06:30:27.001Z,74.53
2023-03-22T06:31:28.574Z,73.94
2023-03-22T06:32:30.017Z,73.39
2023-03-22T06:33:31.657Z,73.40
2023-03-22T06:34:33.162Z,73.36
2023-03-22T06:35:35.511Z,73.11
2023-03-22T06:36:36.920Z,72.17
2023-03-22T06:37:38.374Z,70.88
2023-03-22T06:38:39.782Z,70.75
2023-03-22T06:39:41.509Z,70.46
2023-03-22T06:40:43.419Z,69.72
2023-03-22T06:41:45.189Z,69.19
2023-03-22T06:42:46.684Z,68.76
2023-03-22T06:43:48.149Z,68.55
2023-03-22T06:44:49.581Z,67.90
2023-03-22T06:45:51.261Z,67.81
2023-03-22T06:46:52.857Z,67.34
2023-03-22T06:47:54.341Z,67.06
2023-03-22T06:48:55.832Z,66.59
2023-03-22T06:49:57.677Z,66.62
2023-03-22T06:50:59.807Z,66.14
2023-03-22T06:52:01.647Z,66.19
2023-03-22T06:53:03.140Z,65.42
2023-03-22T06:54:04.743Z,64.88
2023-03-22T06:55:06.789Z,64.82
2023-03-22T06:56:08.559Z,63.95
2023-03-22T06:57:10.158Z,63.57
2023-03-22T06:58:11.746Z,63.44
2023-03-22T06:59:13.200Z,63.48
2023-03-22T07:00:15.368Z,62.71
2023-03-22T07:01:16.865Z,62.90
2023-03-22T07:02:18.368Z,62.90
2023-03-22T07:03:19.817Z,63.43
2023-03-22T07:04:21.745Z,63.86
2023-03-22T07:05:23.611Z,63.76
2023-03-22T07:06:25.229Z,63.96
2023-03-22T07:07:26.689Z,64.29
2023-03-22T07:08:28.334Z,64.30
2023-03-22T07:09:29.766Z,64.85
2023-03-22T07:10:31.275Z,65.12
2023-03-22T07:11:32.907Z,65.33
2023-03-22T07:12:34.821Z,65.42
2023-03-22T07:13:36.622Z,65.50
2023-03-22T07:14:38.439Z,65.71
2023-03-22T07:15:40.523Z,65.70
2023-03-22T07:16:42.036Z,65.06
2023-03-22T07:17:43.495Z,65.91
2023-03-22T07:18:44.987Z,65.97
2023-03-22T07:19:46.426Z,65.72
2023-03-22T07:20:47.894Z,66.12
2023-03-22T07:21:49.386Z,66.16
2023-03-22T07:22:51.358Z,67.01
2023-03-22T07:23:53.090Z,66.97
2023-03-22T07:24:58.279Z,66.43
2023-03-22T07:26:00.888Z,65.91
2023-03-22T07:27:02.352Z,65.35
2023-03-22T07:28:03.984Z,64.82
2023-03-22T07:29:05.465Z,63.79
2023-03-22T07:30:09.640Z,63.74
2023-03-22T07:31:13.124Z,63.03
2023-03-22T07:32:14.647Z,62.37
2023-03-22T07:33:16.369Z,61.69
2023-03-22T07:34:17.864Z,61.07
2023-03-22T07:35:19.446Z,60.24
2023-03-22T07:36:23.856Z,59.72
2023-03-22T07:37:25.714Z,58.95
2023-03-22T07:38:27.345Z,57.77
2023-03-22T07:39:29.505Z,56.94
2023-03-22T07:40:31.386Z,56.11
2023-03-22T07:41:33.049Z,55.62
2023-03-22T07:42:34.781Z,54.80
2023-03-22T07:43:50.733Z,53.83
2023-03-22T07:44:55.074Z,53.33
2023-03-22T07:45:56.930Z,52.65
2023-03-22T07:46:58.417Z,52.29
2023-03-22T07:47:59.893Z,51.39
2023-03-22T07:49:01.583Z,51.28
2023-03-22T07:50:03.393Z,51.25
2023-03-22T07:51:05.518Z,50.82
2023-03-22T07:52:07.813Z,50.84
2023-03-22T07:53:10.156Z,50.16
2023-03-22T07:54:17.740Z,50.25
2023-03-22T07:55:24.397Z,50.36
2023-03-22T07:56:25.869Z,50.19
2023-03-22T07:57:27.437Z,49.71
2023-03-22T07:58:28.895Z,49.60
2023-03-22T07:59:31.575Z,49.70
2023-03-22T08:00:33.059Z,49.51
2023-03-22T08:01:34.490Z,48.15
2023-03-22T08:02:37.641Z,46.61
2023-03-22T08:03:39.408Z,46.76
2023-03-22T08:04:41.239Z,45.85
2023-03-22T08:05:43.556Z,44.20
2023-03-22T08:06:46.445Z,43.08
2023-03-22T08:07:48.216Z,41.82
2023-03-22T08:08:49.650Z,40.43
2023-03-22T08:09:51.533Z,39.86
2023-03-22T08:10:53.002Z,38.90
2023-03-22T08:11:54.656Z,38.23
2023-03-22T08:12:56.169Z,36.42
2023-03-22T08:13:57.639Z,34.54
2023-03-22T08:14:59.313Z,33.07
2023-03-22T08:16:01.056Z,31.35
2023-03-22T08:17:02.711Z,30.89
2023-03-22T08:18:04.241Z,29.96
2023-03-22T08:19:06.108Z,29.24
2023-03-22T08:20:09.093Z,27.92
2023-03-22T08:21:10.934Z,28.15
2023-03-22T08:22:13.449Z,28.77
2023-03-22T08:23:16.250Z,28.81
2023-03-22T08:24:17.888Z,29.67
2023-03-22T08:25:19.815Z,31.10
2023-03-22T08:26:22.129Z,31.85
2023-03-22T08:27:23.800Z,31.88
2023-03-22T08:28:25.229Z,31.91
2023-03-22T08:29:27.664Z,31.52
2023-03-22T08:30:29.533Z,30.31
2023-03-22T08:31:31.654Z,29.63
2023-03-22T08:32:33.875Z,27.76
2023-03-22T08:33:35.412Z,26.41
2023-03-22T08:34:39.285Z,25.25
2023-03-22T08:35:41.547Z,24.35
2023-03-22T08:36:43.436Z,24.85
2023-03-22T08:37:44.963Z,24.31
2023-03-22T08:38:46.506Z,23.22
2023-03-22T08:39:48.430Z,23.17
2023-03-22T08:40:49.959Z,22.01
2023-03-22T08:41:51.397Z,22.28
2023-03-22T08:42:52.947Z,22.11
2023-03-22T08:43:54.408Z,24.12
2023-03-22T08:44:55.818Z,24.20
2023-03-22T08:45:57.704Z,24.60
2023-03-22T08:46:59.796Z,24.17
2023-03-22T08:48:02.206Z,23.43
2023-03-22T08:49:04.376Z,23.28
2023-03-22T08:50:06.475Z,23.12
2023-03-22T08:51:08.096Z,22.05
2023-03-22T08:52:09.692Z,23.38
2023-03-22T08:53:11.254Z,23.84
2023-03-22T08:54:13.230Z,23.93
2023-03-22T08:55:17.460Z,24.61
2023-03-22T08:56:20.156Z,25.77
2023-03-22T08:57:23.807Z,28.23
2023-03-22T08:58:25.381Z,29.46
2023-03-22T08:59:26.874Z,31.64
2023-03-22T09:00:36.523Z,33.38
2023-03-22T09:01:47.660Z,35.81
2023-03-22T09:02:50.233Z,38.07
2023-03-22T09:03:51.686Z,38.64
2023-03-22T09:04:53.963Z,39.95
2023-03-22T09:05:55.493Z,40.75
2023-03-22T09:06:56.929Z,41.49
2023-03-22T09:08:05.816Z,42.85
2023-03-22T09:09:08.169Z,42.91
2023-03-22T09:10:10.874Z,43.39
2023-03-22T09:11:13.232Z,44.06
2023-03-22T09:12:14.685Z,44.40
2023-03-22T09:13:16.983Z,44.54
2023-03-22T09:14:18.691Z,45.29
2023-03-22T09:15:20.314Z,45.58
2023-03-22T09:16:22.072Z,46.01
2023-03-22T09:17:23.621Z,46.63
2023-03-22T09:18:25.923Z,47.67
2023-03-22T09:19:29.478Z,49.36
2023-03-22T09:20:30.935Z,48.20
2023-03-22T09:21:32.515Z,47.36
2023-03-22T09:22:34.106Z,46.39
2023-03-22T09:23:37.903Z,45.11
2023-03-22T09:24:39.612Z,43.89
2023-03-22T09:25:45.611Z,43.56
2023-03-22T09:26:47.327Z,43.51
2023-03-22T09:27:49.478Z,43.91
2023-03-22T09:28:51.266Z,44.04
2023-03-22T09:29:53.319Z,44.12
2023-03-22T09:30:54.841Z,45.01
2023-03-22T09:31:56.308Z,44.85
2023-03-22T09:32:57.744Z,45.26
2023-03-22T09:33:59.171Z,45.90
2023-03-22T09:35:00.905Z,46.97
2023-03-22T09:36:02.495Z,46.94
2023-03-22T09:37:04.216Z,47.25
2023-03-22T09:38:06.618Z,48.08
2023-03-22T09:39:10.457Z,48.46
2023-03-22T09:40:12.934Z,48.35
2023-03-22T09:41:21.081Z,48.24
2023-03-22T09:42:32.058Z,48.54
2023-03-22T09:43:39.851Z,48.18
2023-03-22T09:44:44.977Z,48.49
2023-03-22T09:45:49.861Z,48.38
2023-03-22T09:46:54.453Z,48.19
2023-03-22T09:47:57.378Z,47.16
2023-03-22T09:49:00.885Z,46.90
2023-03-22T09:50:18.694Z,47.59
2023-03-22T09:51:38.734Z,47.71
2023-03-22T09:52:41.485Z,46.94
2023-03-22T09:53:42.975Z,47.86
2023-03-22T09:54:46.828Z,48.45
2023-03-22T09:56:10.533Z,48.16
2023-03-22T09:57:36.414Z,47.68
2023-03-22T09:58:56.341Z,47.66
2023-03-22T10:00:16.510Z,47.10
2023-03-22T10:01:35.240Z,47.34
2023-03-22T10:02:39.711Z,47.60
2023-03-22T10:03:53.308Z,47.73
2023-03-22T10:05:13.759Z,47.71
2023-03-22T10:06:23.931Z,48.17
2023-03-22T10:07:30.264Z,47.75
2023-03-22T10:09:09.076Z,47.96
2023-03-22T10:10:20.254Z,47.59
2023-03-22T10:11:46.096Z,46.97
2023-03-22T10:13:17.988Z,46.90
2023-03-22T10:14:29.671Z,46.69
2023-03-22T10:15:40.838Z,47.22
2023-03-22T10:16:44.647Z,47.09
2023-03-22T10:17:52.123Z,47.17
2023-03-22T10:19:04.239Z,47.25
2023-03-22T10:20:28.720Z,47.38
2023-03-22T10:21:30.396Z,47.09
2023-03-22T10:22:35.616Z,47.27
2023-03-22T10:23:58.675Z,47.81
2023-03-22T10:25:01.399Z,47.65
2023-03-22T10:26:04.890Z,47.55
2023-03-22T10:27:18.686Z,46.25
2023-03-22T10:28:24.920Z,46.15
2023-03-22T10:29:35.926Z,46.34
2023-03-22T10:30:41.174Z,46.10
2023-03-22T10:31:45.820Z,46.59
2023-03-22T10:33:11.638Z,45.96
2023-03-22T10:34:18.795Z,44.41
2023-03-22T10:35:20.337Z,43.60
2023-03-22T10:36:25.039Z,43.08
2023-03-22T10:37:33.392Z,43.06
2023-03-22T10:38:42.403Z,42.51
2023-03-22T10:39:49.895Z,41.73
2023-03-22T10:40:54.778Z,41.69
2023-03-22T10:41:58.325Z,41.65
2023-03-22T10:43:16.211Z,40.04
2023-03-22T10:44:20.964Z,40.78
2023-03-22T10:45:24.935Z,40.55
2023-03-22T10:46:31.374Z,41.04
2023-03-22T10:48:04.046Z,41.65
2023-03-22T10:49:07.962Z,42.20
2023-03-22T10:50:22.715Z,42.35
2023-03-22T10:51:47.694Z,41.53
2023-03-22T10:52:49.617Z,40.79
2023-03-22T10:53:54.103Z,40.24
2023-03-22T10:55:01.256Z,40.15
2023-03-22T10:56:05.199Z,39.11
2023-03-22T10:57:07.105Z,38.24
2023-03-22T10:58:15.741Z,36.26
2023-03-22T10:59:50.091Z,34.99
2023-03-22T11:00:55.047Z,34.48
2023-03-22T11:01:57.271Z,34.00
2023-03-22T11:03:02.147Z,33.40
2023-03-22T11:04:04.045Z,33.82
2023-03-22T11:05:07.296Z,34.04
2023-03-22T11:06:14.990Z,33.85
2023-03-22T11:07:32.218Z,34.43
2023-03-22T11:08:45.157Z,35.95
2023-03-22T11:09:46.661Z,37.14
2023-03-22T11:10:52.179Z,38.08
2023-03-22T11:11:56.850Z,38.57
2023-03-22T11:13:07.431Z,38.57
2023-03-22T11:14:37.531Z,37.94
2023-03-22T11:15:42.000Z,37.17
2023-03-22T11:16:56.197Z,37.02
2023-03-22T11:18:04.606Z,38.13
2023-03-22T11:19:06.221Z,38.33
2023-03-22T11:20:16.158Z,38.04
2023-03-22T11:21:21.125Z,36.96
2023-03-22T11:22:36.471Z,35.64
2023-03-22T11:23:42.302Z,33.48
2023-03-22T11:24:46.842Z,30.96
2023-03-22T11:25:50.685Z,29.49
2023-03-22T11:27:19.658Z,28.27
2023-03-22T11:28:28.920Z,27.59
2023-03-22T11:29:46.851Z,29.31
2023-03-22T11:31:00.875Z,30.36
2023-03-22T11:32:02.395Z,31.59
2023-03-22T11:33:25.996Z,32.72
2023-03-22T11:34:30.930Z,32.75
2023-03-22T11:35:32.683Z,32.61
2023-03-22T11:36:44.913Z,32.43
2023-03-22T11:37:51.067Z,32.95
2023-03-22T11:39:07.405Z,33.43
2023-03-22T11:40:21.665Z,33.80
2023-03-22T11:41:25.637Z,33.38
2023-03-22T11:42:27.364Z,33.18
2023-03-22T11:43:36.171Z,33.72
2023-03-22T11:44:38.128Z,34.40
2023-03-22T11:45:42.941Z,35.28
2023-03-22T11:47:00.641Z,35.46
2023-03-22T11:48:08.789Z,35.15
2023-03-22T11:49:16.738Z,33.73
2023-03-22T11:50:28.560Z,34.09
2023-03-22T11:51:35.458Z,34.16
2023-03-22T11:52:37.136Z,35.94
2023-03-22T11:53:43.084Z,36.52
2023-03-22T11:54:46.937Z,36.96
2023-03-22T11:55:51.668Z,37.15
2023-03-22T11:56:58.018Z,37.11
2023-03-22T11:57:59.641Z,38.41
2023-03-22T11:59:13.498Z,39.35
2023-03-22T12:00:15.569Z,37.74
2023-03-22T12:01:27.831Z,37.66
2023-03-22T12:02:33.163Z,37.45
2023-03-22T12:03:40.011Z,37.79
2023-03-22T12:04:45.232Z,38.01
2023-03-22T12:05:50.029Z,37.27
2023-03-22T12:06:56.832Z,37.40
2023-03-22T12:08:27.184Z,38.39
2023-03-22T12:10:00.954Z,38.18
2023-03-22T12:11:07.152Z,37.56
2023-03-22T12:12:14.361Z,37.89
2023-03-22T12:13:28.922Z,37.24
2023-03-22T12:14:37.385Z,35.24
2023-03-22T12:15:48.459Z,33.09
2023-03-22T12:16:54.861Z,31.81
2023-03-22T12:18:08.600Z,31.25
2023-03-22T12:19:33.388Z,32.23
2023-03-22T12:20:53.425Z,33.09
2023-03-22T12:21:55.464Z,33.46
2023-03-22T12:22:57.041Z,33.93
2023-03-22T12:24:02.587Z,33.98
2023-03-22T12:25:09.279Z,34.61
2023-03-22T12:26:16.053Z,33.89
2023-03-22T12:27:23.918Z,33.55
2023-03-22T12:28:45.618Z,32.94
2023-03-22T12:30:12.247Z,31.71
2023-03-22T12:31:19.587Z,29.87
2023-03-22T12:32:35.506Z,29.19
2023-03-22T12:33:52.606Z,30.56
2023-03-22T12:35:09.235Z,31.55
2023-03-22T12:36:38.722Z,32.06
2023-03-22T12:37:42.809Z,32.09
2023-03-22T12:38:56.591Z,32.33
2023-03-22T12:40:00.952Z,32.40
2023-03-22T12:41:07.183Z,30.19
2023-03-22T12:42:40.468Z,29.74
2023-03-22T12:43:56.264Z,27.80
2023-03-22T12:45:05.470Z,26.46
2023-03-22T12:46:15.592Z,26.62
2023-03-22T12:47:28.572Z,25.84
2023-03-22T12:48:51.845Z,25.51
2023-03-22T12:49:59.420Z,26.90
2023-03-22T12:51:05.570Z,28.06
2023-03-22T12:52:18.428Z,28.48
2023-03-22T12:53:23.011Z,28.51
2023-03-22T12:54:26.075Z,29.79
2023-03-22T12:55:31.666Z,29.18
2023-03-22T12:56:38.761Z,29.01
2023-03-22T12:57:40.354Z,27.99
2023-03-22T12:58:48.417Z,27.31
2023-03-22T12:59:52.973Z,26.13
2023-03-22T13:00:59.719Z,24.49
2023-03-22T13:02:19.796Z,23.94
2023-03-22T13:03:36.606Z,22.82
2023-03-22T13:04:38.076Z,24.14
2023-03-22T13:05:40.242Z,25.56
2023-03-22T13:06:45.385Z,26.99
2023-03-22T13:07:46.806Z,28.81
2023-03-22T13:09:16.073Z,29.85
2023-03-22T13:10:30.236Z,30.90
2023-03-22T13:11:31.802Z,31.44
2023-03-22T13:12:34.132Z,31.93
2023-03-22T13:13:44.207Z,32.42
2023-03-22T13:15:41.278Z,33.26
2023-03-22T13:16:53.500Z,33.71
2023-03-22T13:17:56.707Z,34.00
2023-03-22T13:19:01.867Z,34.42
2023-03-22T13:20:19.978Z,34.67
2023-03-22T13:21:29.890Z,35.54
2023-03-22T13:22:43.110Z,36.21
2023-03-22T13:24:07.625Z,36.30
2023-03-22T13:25:17.185Z,36.10
2023-03-22T13:26:19.554Z,36.45
2023-03-22T13:27:21.567Z,36.67
2023-03-22T13:28:28.799Z,35.27
2023-03-22T13:29:41.947Z,34.96
2023-03-22T13:30:53.323Z,34.97
2023-03-22T13:32:01.820Z,34.62
2023-03-22T13:33:08.558Z,34.64
2023-03-22T13:34:17.031Z,34.40
2023-03-22T13:35:28.378Z,34.21
2023-03-22T13:36:32.244Z,34.00
2023-03-22T13:37:42.220Z,34.14
2023-03-22T13:38:44.228Z,33.51
2023-03-22T13:39:51.980Z,33.40
2023-03-22T13:41:01.980Z,33.26
2023-03-22T13:42:08.459Z,32.91
2023-03-22T13:43:12.190Z,33.04
2023-03-22T13:44:36.147Z,33.39
2023-03-22T13:46:03.177Z,33.29
2023-03-22T13:47:08.483Z,33.41
2023-03-22T13:48:27.351Z,33.59
2023-03-22T13:49:34.571Z,33.62
2023-03-22T13:50:37.181Z,33.94
2023-03-22T13:51:40.058Z,33.46
2023-03-22T13:52:43.922Z,33.09
2023-03-22T13:54:04.759Z,33.17
2023-03-22T13:55:36.203Z,32.86
2023-03-22T13:56:56.190Z,32.58
2023-03-22T13:57:59.273Z,32.51
2023-03-22T13:59:03.814Z,32.85
2023-03-22T14:00:20.465Z,32.50
2023-03-22T14:01:35.114Z,32.74
2023-03-22T14:02:41.789Z,32.57
2023-03-22T14:03:46.008Z,32.64
2023-03-22T14:04:56.054Z,31.77
2023-03-22T14:06:07.520Z,32.20
2023-03-22T14:07:24.026Z,31.75
2023-03-22T14:08:28.486Z,31.95
2023-03-22T14:09:35.880Z,31.75